Hlavní strana
METAR-TAF:

METAR-TAF

Letiště :

Pell City, Alabama, Spojené státy americké

zeměpisná šířka: 33-33-32N, zeměpisná délka: 086-14-57W, výška: 148 m

Aktuální stav počasí

Zpráva byla vytvořena před 19 hodinami a 27 minutami, v 15:35 UTC
Bezvětří
Teplota 27°C
Vlhkost vzduchu 74%
Tlak 1025 hPa
Viditelnost: 16.1 km
Skoro jasno ve výšce 6500 ft

METAR: KPLR 231535Z AUTO 00000KT 10SM FEW065 27/22 A3026 RMK A01

Čas: 06:02 (11:02 UTC)


TAF: chybějící

Stav a předpovědi počasí z více než 4 000 letišť (zprávy METAR a TAF).

Červené a žluté tečky na mapě představují dostupné meteorologické stanice.

Když kurzor umístíte na tečku, zobrazí se název stanice.

Pak kliknutím zobrazíte stav a předpověď počasí.

Chcete-li změnit mapu, kliknutím na zelené tlačítko se znaménkem +mapu přiblížíte, kliknutím na zelené tlačítko se znaménkem – mapu oddálíte a kliknutím na zelené šipky přejdete na sousední mapy.


METAR-TAF: